Time;durP1;ratioP1;P1;durP2;ratioP2;P2;SDS_P1;SDS_P2;PMS_P1;PMS_P2;Temp;Humidity;BMP_temperature;BMP_pressure;BME280_temperature;BME280_humidity;BME280_pressure;Samples;Min_cycle;Max_cycle;Signal;HPM_P1;HPM_P2
2020/12/07 00:00:13;;;;;;;26.77;12.23;;;;;;;-5.13;53.43;102543.00;5032203;28;20045;-67
2020/12/07 00:02:40;;;;;;;26.63;11.68;;;;;;;-5.17;53.17;102548.97;5032397;28;20037;-69
2020/12/07 00:05:06;;;;;;;25.33;11.30;;;;;;;-5.12;53.04;102546.50;5031895;28;20045;-69
2020/12/07 00:07:32;;;;;;;27.30;12.05;;;;;;;-5.52;53.43;102486.19;5032006;28;20041;-69
2020/12/07 00:09:57;;;;;;;27.45;12.32;;;;;;;-5.35;53.81;102518.88;5031980;28;20048;-67
2020/12/07 00:12:26;;;;;;;26.67;12.10;;;;;;;-5.27;53.71;102539.13;5032139;28;20397;-67
2020/12/07 00:14:52;;;;;;;26.85;11.02;;;;;;;-5.21;53.72;102541.91;5032180;28;20041;-66
2020/12/07 00:17:22;;;;;;;27.52;12.35;;;;;;;-5.20;53.79;102536.69;5031390;28;20033;-67
2020/12/07 00:19:48;;;;;;;28.00;11.95;;;;;;;-5.13;53.69;102540.38;5032302;28;20080;-69
2020/12/07 00:22:27;;;;;;;27.65;11.80;;;;;;;-5.17;53.87;102546.34;5031801;28;20053;-69
2020/12/07 00:24:53;;;;;;;29.40;11.77;;;;;;;-5.20;53.06;102544.53;5031796;28;20039;-68
2020/12/07 00:27:26;;;;;;;30.90;12.80;;;;;;;-5.33;53.63;102525.00;5031799;28;20049;-62
2020/12/07 00:29:55;;;;;;;22.92;10.68;;;;;;;-5.23;53.75;102535.75;5031429;28;20068;-67
2020/12/07 00:32:22;;;;;;;33.88;12.75;;;;;;;-5.22;53.79;102545.34;5031878;28;20041;-65
2020/12/07 00:34:48;;;;;;;30.02;12.48;;;;;;;-5.24;53.55;102547.03;5031955;28;20081;-68
2020/12/07 00:37:14;;;;;;;22.90;9.10;;;;;;;-5.15;52.99;102536.84;5031539;28;20065;-66
2020/12/07 00:39:40;;;;;;;28.23;11.93;;;;;;;-5.18;53.86;102539.38;5031570;28;20103;-67
2020/12/07 00:42:08;;;;;;;26.40;11.88;;;;;;;-5.24;53.96;102539.19;5042109;28;20044;-65
2020/12/07 00:44:35;;;;;;;27.88;12.05;;;;;;;-5.47;53.72;102521.13;5036215;28;20057;-64
2020/12/07 00:47:01;;;;;;;26.15;12.00;;;;;;;-5.30;54.00;102544.25;5029199;28;20048;-67
2020/12/07 00:49:26;;;;;;;27.67;12.65;;;;;;;-5.26;53.89;102536.53;5029249;28;20030;-66
2020/12/07 00:51:52;;;;;;;27.50;13.35;;;;;;;-5.83;53.77;102446.09;5028987;28;20053;-54
2020/12/07 00:54:19;;;;;;;27.83;13.20;;;;;;;-5.27;53.88;102542.59;5028262;28;20037;-65
2020/12/07 00:56:44;;;;;;;32.45;14.30;;;;;;;-5.37;53.82;102525.78;5028964;28;20057;-67
2020/12/07 00:59:10;;;;;;;32.72;13.60;;;;;;;-5.33;54.11;102540.69;5028984;28;20534;-65
2020/12/07 01:01:36;;;;;;;24.33;11.07;;;;;;;-5.45;53.68;102514.22;5028833;28;20041;-67
2020/12/07 01:04:02;;;;;;;38.88;14.10;;;;;;;-5.33;53.68;102543.28;5030503;28;20067;-69
2020/12/07 01:06:31;;;;;;;31.17;14.77;;;;;;;-5.52;54.32;102512.28;5030688;28;20447;-66
2020/12/07 01:08:57;;;;;;;31.73;14.00;;;;;;;-5.97;54.16;102433.56;5030787;28;20037;-66
2020/12/07 01:11:23;;;;;;;27.33;12.75;;;;;;;-5.39;54.04;102537.03;5030954;28;20029;-69
2020/12/07 01:13:48;;;;;;;30.10;13.27;;;;;;;-5.43;53.98;102533.44;5030906;28;20124;-70
2020/12/07 01:16:23;;;;;;;23.67;12.25;;;;;;;-5.43;54.66;102523.00;5030761;28;20033;-68
2020/12/07 01:18:50;;;;;;;28.17;11.00;;;;;;;-6.00;54.14;102433.47;5030629;28;20036;-62
2020/12/07 01:21:16;;;;;;;27.35;12.05;;;;;;;-5.40;54.02;102524.81;5030690;28;20069;-69
2020/12/07 01:23:44;;;;;;;32.92;13.90;;;;;;;-5.36;53.96;102540.59;5031103;28;20404;-69
2020/12/07 01:26:13;;;;;;;30.55;13.15;;;;;;;-5.42;54.18;102539.56;5030470;28;20041;-67
2020/12/07 01:28:39;;;;;;;31.98;12.15;;;;;;;-5.45;54.21;102539.44;5030399;28;20041;-68
2020/12/07 01:31:04;;;;;;;24.17;11.90;;;;;;;-5.63;54.49;102518.06;5030628;28;20485;-69
2020/12/07 01:33:30;;;;;;;23.88;11.90;;;;;;;-6.20;54.53;102423.34;5030019;28;20056;-68
2020/12/07 01:35:56;;;;;;;29.95;11.95;;;;;;;-5.56;54.42;102528.66;5030527;28;20072;-51
2020/12/07 01:38:22;;;;;;;26.75;11.77;;;;;;;-5.77;54.46;102490.69;5031285;28;20136;-67
2020/12/07 01:40:48;;;;;;;25.33;11.65;;;;;;;-5.51;54.30;102554.09;5031290;28;20029;-69
2020/12/07 01:43:14;;;;;;;27.02;11.70;;;;;;;-5.52;54.53;102543.63;5031627;28;20087;-68
2020/12/07 01:45:39;;;;;;;26.63;12.40;;;;;;;-5.57;54.53;102547.78;5031050;28;20045;-67
2020/12/07 01:48:05;;;;;;;29.45;12.63;;;;;;;-5.59;54.88;102536.41;5030535;28;20037;-68
2020/12/07 01:50:31;;;;;;;23.35;11.07;;;;;;;-5.72;54.82;102517.78;5030535;28;20037;-69
2020/12/07 01:52:58;;;;;;;24.63;11.38;;;;;;;-5.58;54.51;102548.63;5030009;28;20377;-55
2020/12/07 01:55:23;;;;;;;29.50;12.27;;;;;;;-5.57;54.47;102529.50;5030516;28;20068;-68
2020/12/07 01:57:49;;;;;;;24.88;11.13;;;;;;;-5.55;54.30;102530.44;5029877;28;20041;-67
2020/12/07 02:00:14;;;;;;;30.40;12.68;;;;;;;-5.72;54.67;102509.06;5029609;28;20060;-67
2020/12/07 02:02:40;;;;;;;36.72;12.07;;;;;;;-5.60;54.57;102535.56;5030133;28;20033;-69
2020/12/07 02:05:06;;;;;;;29.23;12.90;;;;;;;-5.61;54.64;102539.00;5047979;28;20179;-67
2020/12/07 02:07:31;;;;;;;26.63;11.38;;;;;;;-5.61;54.93;102539.00;5053997;28;20407;-68
2020/12/07 02:09:57;;;;;;;22.95;11.52;;;;;;;-5.63;54.97;102549.38;5048521;28;20055;-57
2020/12/07 02:12:22;;;;;;;25.38;11.98;;;;;;;-5.62;55.33;102540.72;5034758;28;20033;-67
2020/12/07 02:14:48;;;;;;;25.90;11.15;;;;;;;-5.82;54.89;102507.91;5034413;28;20481;-67
2020/12/07 02:17:13;;;;;;;31.77;11.95;;;;;;;-5.59;55.14;102541.63;5034082;28;20485;-68
2020/12/07 02:19:39;;;;;;;23.88;10.70;;;;;;;-5.71;55.01;102523.88;5033715;28;20029;-69
2020/12/07 02:22:04;;;;;;;26.38;11.98;;;;;;;-5.58;55.14;102536.47;5034011;28;20072;-68
2020/12/07 02:24:29;;;;;;;25.42;12.45;;;;;;;-5.68;55.07;102537.91;5034259;28;20092;-67
2020/12/07 02:26:55;;;;;;;27.95;12.07;;;;;;;-5.61;54.90;102544.22;5034264;28;20049;-63
2020/12/07 02:29:28;;;;;;;28.85;11.70;;;;;;;-5.63;55.24;102536.31;5033862;28;20037;-68
2020/12/07 02:32:10;;;;;;;23.00;11.43;;;;;;;-5.64;55.39;102524.13;5034145;28;20060;-68
2020/12/07 02:34:35;;;;;;;25.80;11.60;;;;;;;-5.58;55.36;102544.31;5033134;28;20547;-67
2020/12/07 02:37:00;;;;;;;27.60;11.85;;;;;;;-5.63;55.27;102535.47;5033553;28;20045;-68
2020/12/07 02:39:26;;;;;;;29.25;12.30;;;;;;;-5.60;55.51;102553.81;5034080;28;20392;-67
2020/12/07 02:41:51;;;;;;;27.08;11.70;;;;;;;-5.63;54.92;102544.16;5033615;28;20033;-67
2020/12/07 02:44:17;;;;;;;32.13;12.68;;;;;;;-5.53;54.93;102537.50;5033636;28;20052;-67
2020/12/07 02:46:42;;;;;;;27.58;11.80;;;;;;;-5.56;55.08;102549.56;5033098;28;20041;-66
2020/12/07 02:49:08;;;;;;;24.50;10.70;;;;;;;-5.97;54.78;102487.44;5033964;28;20540;-66
2020/12/07 02:51:33;;;;;;;29.23;11.93;;;;;;;-5.63;55.03;102565.03;5033566;28;20541;-67
2020/12/07 02:53:58;;;;;;;24.52;12.35;;;;;;;-5.68;55.02;102553.56;5034095;28;20513;-67
2020/12/07 02:56:24;;;;;;;32.67;11.82;;;;;;;-6.13;54.82;102486.13;5033608;28;20061;-67
2020/12/07 02:58:49;;;;;;;23.50;11.68;;;;;;;-5.74;54.85;102556.00;5033462;28;20129;-59
2020/12/07 03:01:15;;;;;;;29.00;11.88;;;;;;;-5.76;55.27;102555.94;5014921;28;20041;-65
2020/12/07 03:03:40;;;;;;;28.75;12.40;;;;;;;-5.79;55.52;102568.91;5033375;28;20080;-67
2020/12/07 03:06:06;;;;;;;28.38;11.35;;;;;;;-5.77;55.64;102558.53;5033222;28;20565;-68
2020/12/07 03:08:31;;;;;;;27.35;12.40;;;;;;;-5.81;55.33;102557.53;5033246;28;20033;-66
2020/12/07 03:10:56;;;;;;;23.27;11.85;;;;;;;-5.80;55.24;102564.53;5033551;28;20044;-68
2020/12/07 03:13:22;;;;;;;23.70;11.82;;;;;;;-5.87;55.25;102565.19;5032569;28;20069;-67
2020/12/07 03:15:47;;;;;;;26.08;12.23;;;;;;;-5.84;55.55;102565.28;5032560;28;20033;-68
2020/12/07 03:18:13;;;;;;;20.70;10.23;;;;;;;-5.88;55.59;102565.13;5032602;28;20029;-68
2020/12/07 03:20:38;;;;;;;25.52;11.10;;;;;;;-6.41;55.70;102473.06;5032883;28;20034;-62
2020/12/07 03:23:04;;;;;;;25.83;11.55;;;;;;;-5.87;55.85;102567.78;5033223;28;20508;-66
2020/12/07 03:25:29;;;;;;;23.90;11.50;;;;;;;-5.96;55.52;102552.72;5032824;28;20041;-68
2020/12/07 03:27:54;;;;;;;24.83;11.13;;;;;;;-5.89;55.57;102558.13;5032778;28;20501;-61
2020/12/07 03:30:20;;;;;;;27.38;12.45;;;;;;;-6.26;55.75;102501.38;5032870;28;20038;-69
2020/12/07 03:32:45;;;;;;;27.67;12.70;;;;;;;-5.83;55.93;102558.31;5032926;28;20037;-67
2020/12/07 03:35:11;;;;;;;25.70;11.82;;;;;;;-6.34;55.48;102481.97;5033003;28;20033;-67
2020/12/07 03:37:36;;;;;;;24.42;12.25;;;;;;;-5.86;55.64;102569.56;5031265;28;20038;-69
2020/12/07 03:40:03;;;;;;;24.15;11.57;;;;;;;-6.25;55.59;102497.03;5033014;28;20125;-56
2020/12/07 03:42:28;;;;;;;22.30;10.85;;;;;;;-5.86;55.82;102561.72;5033121;28;20034;-68
2020/12/07 03:44:54;;;;;;;25.13;12.25;;;;;;;-6.31;55.49;102494.25;5032536;28;20540;-69
2020/12/07 03:47:19;;;;;;;24.73;10.98;;;;;;;-6.07;55.97;102543.69;5032578;28;20128;-68
2020/12/07 03:49:48;;;;;;;25.23;10.82;;;;;;;-5.81;55.67;102551.41;5032218;28;20091;-69
2020/12/07 03:52:14;;;;;;;25.27;11.80;;;;;;;-5.90;55.38;102552.03;5032428;28;20485;-68
2020/12/07 03:54:40;;;;;;;28.10;11.18;;;;;;;-5.93;55.61;102542.38;5032294;28;20033;-66
2020/12/07 03:57:05;;;;;;;25.80;11.98;;;;;;;-6.08;55.64;102524.56;5032198;28;20057;-68
2020/12/07 03:59:31;;;;;;;30.08;12.77;;;;;;;-5.88;55.53;102557.28;5032527;28;20136;-68
2020/12/07 04:01:56;;;;;;;25.95;11.50;;;;;;;-5.98;55.71;102538.75;5031607;28;20045;-67
2020/12/07 04:04:24;;;;;;;26.92;12.45;;;;;;;-5.89;55.91;102545.09;5032038;28;20477;-66
2020/12/07 04:06:50;;;;;;;29.65;13.35;;;;;;;-5.92;55.51;102549.38;5032123;28;20072;-68
2020/12/07 04:09:16;;;;;;;27.35;12.35;;;;;;;-5.87;55.30;102553.84;5032701;28;20125;-69
2020/12/07 04:11:41;;;;;;;26.25;11.70;;;;;;;-5.85;55.29;102552.16;5032407;28;20120;-68
2020/12/07 04:14:07;;;;;;;27.95;12.55;;;;;;;-5.89;54.92;102542.47;5032266;28;20120;-69
2020/12/07 04:16:32;;;;;;;22.02;10.27;;;;;;;-5.87;55.30;102556.44;5032394;28;20041;-69
2020/12/07 04:18:58;;;;;;;26.23;11.68;;;;;;;-5.94;54.78;102529.28;5032255;28;20091;-69
2020/12/07 04:21:23;;;;;;;26.58;11.95;;;;;;;-5.87;54.89;102548.63;5032031;28;20532;-67
2020/12/07 04:23:48;;;;;;;31.83;12.85;;;;;;;-5.92;55.11;102544.16;5031719;28;20416;-67
2020/12/07 04:26:14;;;;;;;28.73;11.60;;;;;;;-6.02;55.05;102530.78;5030963;28;20029;-67
2020/12/07 04:28:39;;;;;;;26.33;12.43;;;;;;;-5.95;55.01;102531.00;5031657;28;20043;-71
2020/12/07 04:31:05;;;;;;;23.45;11.10;;;;;;;-6.07;55.16;102515.00;5031934;28;20037;-52
2020/12/07 04:33:30;;;;;;;28.13;11.77;;;;;;;-5.91;54.61;102535.47;5032016;28;20037;-67
2020/12/07 04:35:56;;;;;;;33.75;11.82;;;;;;;-5.88;54.95;102555.56;5031172;28;20443;-66
2020/12/07 04:38:21;;;;;;;32.55;13.52;;;;;;;-6.13;55.09;102523.53;5031280;28;20033;-63
2020/12/07 04:40:47;;;;;;;27.05;11.70;;;;;;;-5.93;54.60;102551.91;5030885;28;20033;-67
2020/12/07 04:43:15;;;;;;;26.92;12.07;;;;;;;-6.00;55.12;102540.44;5031426;28;20076;-65
2020/12/07 04:45:40;;;;;;;28.80;12.65;;;;;;;-5.95;55.15;102558.81;5025268;28;20032;-66
2020/12/07 04:48:07;;;;;;;27.02;12.60;;;;;;;-6.16;55.19;102536.44;5029081;28;20045;-63
2020/12/07 04:50:36;;;;;;;28.33;12.07;;;;;;;-6.02;55.51;102563.00;5049098;28;20033;-68
2020/12/07 04:53:01;;;;;;;34.22;13.25;;;;;;;-5.96;55.41;102573.59;5037674;28;20116;-65
2020/12/07 04:55:27;;;;;;;34.28;12.35;;;;;;;-5.96;55.27;102557.03;5028721;28;20548;-66
2020/12/07 04:57:54;;;;;;;34.05;13.40;;;;;;;-6.44;55.04;102499.03;5028970;28;20132;-64
2020/12/07 05:00:25;;;;;;;36.63;13.95;;;;;;;-5.96;55.48;102570.09;5029443;28;20060;-67
2020/12/07 05:02:55;;;;;;;31.40;13.85;;;;;;;-5.92;55.23;102583.28;5029611;28;20033;-64
2020/12/07 05:05:21;;;;;;;31.30;14.63;;;;;;;-5.95;55.56;102590.13;5030415;28;20045;-70
2020/12/07 05:07:51;;;;;;;27.45;11.77;;;;;;;-5.93;54.90;102584.13;5030703;28;20037;-68
2020/12/07 05:10:37;;;;;;;31.33;14.05;;;;;;;-6.03;55.13;102571.63;5013550;28;20041;-67
2020/12/07 05:13:31;;;;;;;33.60;13.55;;;;;;;-6.04;54.96;102584.66;5031152;28;20037;-63
2020/12/07 05:15:49;;;;;;;30.65;13.95;;;;;;;-6.03;54.85;102581.19;5030052;28;20401;-68
2020/12/07 05:18:14;;;;;;;27.13;12.23;;;;;;;-6.15;55.13;102550.38;5030232;28;20035;-67
2020/12/07 05:20:40;;;;;;;30.25;12.85;;;;;;;-6.04;55.10;102572.47;5031052;28;20041;-68
2020/12/07 05:23:05;;;;;;;30.15;13.07;;;;;;;-6.05;55.11;102583.75;5031152;28;20045;-66
2020/12/07 05:25:31;;;;;;;32.33;13.18;;;;;;;-6.23;55.25;102556.25;5030758;28;20041;-68
2020/12/07 05:27:58;;;;;;;35.83;12.98;;;;;;;-6.00;55.43;102586.47;5031011;28;20037;-68
2020/12/07 05:30:33;;;;;;;31.00;13.27;;;;;;;-6.05;55.14;102573.31;5030604;28;20037;-68
2020/12/07 05:32:59;;;;;;;32.67;13.68;;;;;;;-6.03;54.78;102566.41;5030465;28;20044;-70
2020/12/07 05:35:24;;;;;;;30.52;14.50;;;;;;;-6.54;54.84;102471.78;5012847;28;20452;-68
2020/12/07 05:37:50;;;;;;;28.15;12.93;;;;;;;-5.91;55.03;102574.63;5030837;28;20512;-68
2020/12/07 05:40:15;;;;;;;30.65;13.38;;;;;;;-5.99;54.77;102580.41;5030084;28;20068;-66
2020/12/07 05:42:42;;;;;;;28.38;13.38;;;;;;;-5.87;54.80;102585.16;5030304;28;20103;-69
2020/12/07 05:45:09;;;;;;;34.33;13.68;;;;;;;-5.82;54.68;102588.78;5030788;28;20065;-70
2020/12/07 05:47:39;;;;;;;31.65;12.73;;;;;;;-5.81;54.98;102598.38;5030623;28;20489;-68
2020/12/07 05:50:10;;;;;;;28.75;13.45;;;;;;;-5.84;54.46;102598.28;5030887;28;20044;-71
2020/12/07 05:52:38;;;;;;;30.63;13.52;;;;;;;-5.77;54.66;102593.31;5030808;28;20119;-68
2020/12/07 05:55:03;;;;;;;32.75;13.52;;;;;;;-5.73;54.80;102596.03;5012514;28;20597;-68
2020/12/07 05:57:31;;;;;;;31.77;13.93;;;;;;;-5.86;54.27;102558.22;5030573;28;20045;-68
2020/12/07 06:00:04;;;;;;;30.83;14.10;;;;;;;-5.63;54.36;102600.72;5030181;28;20045;-69
2020/12/07 06:02:30;;;;;;;34.35;14.55;;;;;;;-5.57;54.60;102607.84;5030376;28;20119;-69
2020/12/07 06:04:55;;;;;;;33.30;13.60;;;;;;;-5.47;53.58;102612.50;5030579;28;20609;-66
2020/12/07 06:07:27;;;;;;;33.05;14.07;;;;;;;-5.42;53.53;102610.94;5029209;28;20063;-71
2020/12/07 06:09:56;;;;;;;29.45;13.40;;;;;;;-5.39;53.62;102611.00;5028639;28;20134;-70
2020/12/07 06:12:27;;;;;;;30.95;13.48;;;;;;;-5.34;53.75;102622.47;5030227;28;20087;-70
2020/12/07 06:14:53;;;;;;;30.58;13.25;;;;;;;-5.24;52.91;102609.72;5030679;28;20124;-70
2020/12/07 06:17:49;;;;;;;28.25;13.57;;;;;;;-5.13;53.19;102610.03;5030439;28;20192;-71
2020/12/07 06:20:26;;;;;;;;;;;;;;;-4.92;52.57;102615.00;5029746;28;20041;-70
2020/12/07 06:23:04;;;;;;;33.20;13.48;;;;;;;-5.48;51.80;102496.72;5030346;28;19921;-70
2020/12/07 06:25:32;;;;;;;34.25;13.70;;;;;;;-4.72;51.41;102601.59;5030342;28;20029;-68
2020/12/07 06:28:01;;;;;;;26.83;13.40;;;;;;;-4.57;50.91;102617.72;5029823;28;20407;-70
2020/12/07 06:30:37;;;;;;;33.00;14.05;;;;;;;-4.41;50.72;102618.13;5030343;28;20061;-69
2020/12/07 06:33:05;;;;;;;30.08;13.93;;;;;;;-4.24;50.22;102611.59;5029337;28;20493;-68
2020/12/07 06:35:31;;;;;;;25.80;12.27;;;;;;;-4.40;49.84;102541.44;5029948;28;20033;-69
2020/12/07 06:38:01;;;;;;;28.92;13.43;;;;;;;-3.81;49.82;102590.84;5029836;28;20033;-70
2020/12/07 06:40:29;;;;;;;29.17;12.52;;;;;;;-2.31;48.10;102600.03;5029754;28;20523;-70
2020/12/07 06:42:55;;;;;;;30.40;12.55;;;;;;;0.37;43.69;102583.97;5028903;28;20515;-71
2020/12/07 06:45:31;;;;;;;30.13;11.93;;;;;;;2.98;37.65;102584.25;5029790;28;20105;-70
2020/12/07 06:48:08;;;;;;;28.00;12.10;;;;;;;4.78;34.27;102547.41;5029619;28;20037;-69
2020/12/07 06:50:37;;;;;;;25.83;11.90;;;;;;;6.43;32.90;102569.69;5029770;28;20405;-70
2020/12/07 06:53:36;;;;;;;25.35;12.45;;;;;;;6.99;32.10;102565.91;5032771;28;20029;-70
2020/12/07 06:56:02;;;;;;;27.27;13.27;;;;;;;6.49;32.02;102579.34;5033176;28;20190;-73
2020/12/07 06:58:30;;;;;;;27.40;13.73;;;;;;;6.27;32.05;102589.50;5033419;28;20414;-71
2020/12/07 07:01:05;;;;;;;27.63;13.63;;;;;;;6.96;31.57;102578.41;5033245;28;20095;-71
2020/12/07 07:03:30;;;;;;;25.88;13.68;;;;;;;8.08;29.37;102573.13;5033016;28;20094;-70
2020/12/07 07:05:56;;;;;;;26.23;14.43;;;;;;;8.97;27.94;102577.84;5032847;28;20162;-70
2020/12/07 07:08:21;;;;;;;27.73;16.02;;;;;;;9.33;26.74;102526.84;5030201;28;20040;-69
2020/12/07 07:10:47;;;;;;;29.45;16.08;;;;;;;10.02;25.95;102564.72;5031571;28;20041;-71
2020/12/07 07:13:12;;;;;;;37.38;16.52;;;;;;;10.34;24.96;102570.75;5029168;28;20823;-71
2020/12/07 07:15:41;;;;;;;27.20;15.82;;;;;;;10.39;24.26;102566.13;5030883;28;20554;-63
2020/12/07 07:18:06;;;;;;;29.38;15.82;;;;;;;10.19;24.79;102574.84;5024519;28;20040;-69
2020/12/07 07:20:32;;;;;;;32.22;16.52;;;;;;;9.39;25.03;102578.38;5030739;28;20044;-68
2020/12/07 07:22:59;;;;;;;29.75;15.55;;;;;;;8.19;25.88;102590.63;5030468;28;20116;-65
2020/12/07 07:25:41;;;;;;;29.45;14.93;;;;;;;6.47;27.49;102590.00;5030798;28;20037;-64
2020/12/07 07:28:08;;;;;;;30.25;15.07;;;;;;;5.05;29.80;102594.84;5029217;28;20043;-64
2020/12/07 07:30:34;;;;;;;32.88;17.00;;;;;;;3.91;30.62;102600.47;5021700;28;20066;-70
2020/12/07 07:33:00;;;;;;;31.77;16.65;;;;;;;2.97;32.22;102598.38;5028653;28;20473;-63
2020/12/07 07:35:28;;;;;;;30.08;15.50;;;;;;;2.11;32.86;102610.03;5031671;28;20064;-70
2020/12/07 07:37:54;;;;;;;34.40;16.58;;;;;;;0.98;34.25;102585.19;5031927;28;20037;-71
2020/12/07 07:40:23;;;;;;;30.75;15.38;;;;;;;0.33;35.83;102608.53;5020763;28;20390;-73
2020/12/07 07:42:54;;;;;;;31.70;15.18;;;;;;;-0.18;36.67;102600.22;5032399;28;20560;-70
2020/12/07 07:45:21;;;;;;;36.53;16.33;;;;;;;-0.41;37.17;102619.31;5031504;28;20131;-65
2020/12/07 07:48:03;;;;;;;31.08;15.23;;;;;;;-1.15;38.08;102540.47;5031761;28;20425;-73
2020/12/07 08:13:02;;;;;;;29.30;12.77;;;;;;;-1.38;38.86;102585.72;5031471;28;20934;-62
2020/12/07 08:15:47;;;;;;;28.50;13.77;;;;;;;-1.32;38.65;102577.06;5030790;28;20033;-63
2020/12/07 08:18:18;;;;;;;29.55;13.75;;;;;;;-1.74;38.24;102493.28;5031510;28;20025;-71
2020/12/07 08:20:55;;;;;;;29.75;13.55;;;;;;;-1.20;38.30;102577.19;5031356;28;20037;-63
2020/12/07 08:23:34;;;;;;;30.35;13.02;;;;;;;-1.15;38.31;102577.28;5012090;28;20408;-65
2020/12/07 08:26:01;;;;;;;30.80;13.63;;;;;;;-1.16;38.47;102591.28;5031036;28;20370;-66
2020/12/07 08:28:41;;;;;;;29.05;13.00;;;;;;;-1.13;38.29;102572.91;5003911;28;20447;-67
2020/12/07 08:31:13;;;;;;;29.42;13.93;;;;;;;-1.20;38.45;102573.72;5030490;28;20036;-65
2020/12/07 08:34:14;;;;;;;28.00;14.25;;;;;;;-1.16;38.90;102570.25;5030965;28;20040;-70
2020/12/07 08:36:45;;;;;;;28.23;12.52;;;;;;;-1.13;38.85;102575.53;5030858;28;20464;-68
2020/12/07 08:39:11;;;;;;;27.77;12.77;;;;;;;-1.15;38.60;102569.38;5030990;28;20041;-65
2020/12/07 08:41:37;;;;;;;29.92;13.38;;;;;;;-1.31;38.54;102535.00;5031439;28;20500;-65
2020/12/07 08:44:05;;;;;;;28.92;13.68;;;;;;;-1.04;38.85;102566.88;5031264;28;20033;-68
2020/12/07 08:46:33;;;;;;;24.33;12.55;;;;;;;-0.99;38.42;102566.91;5030481;28;20090;-68
2020/12/07 08:49:00;;;;;;;22.50;11.35;;;;;;;-0.98;38.51;102563.44;5030563;28;20179;-72
2020/12/07 08:51:27;;;;;;;23.67;11.82;;;;;;;-0.87;38.63;102570.56;5030534;28;20130;-64
2020/12/07 08:53:53;;;;;;;29.13;12.32;;;;;;;-0.87;38.79;102557.41;5030218;28;20033;-65
2020/12/07 08:56:19;;;;;;;30.85;12.73;;;;;;;-0.98;38.61;102540.66;5030680;28;20053;-63
2020/12/07 08:58:45;;;;;;;23.05;12.75;;;;;;;-1.41;38.87;102464.81;5037558;28;20044;-68
2020/12/07 09:01:11;;;;;;;26.95;12.45;;;;;;;-0.89;38.74;102571.44;5030898;28;20112;-70
2020/12/07 09:03:38;;;;;;;28.05;12.70;;;;;;;-0.92;38.28;102556.50;5013231;28;20080;-73
2020/12/07 09:06:05;;;;;;;25.60;11.82;;;;;;;-0.94;38.67;102566.13;5032720;28;20120;-73
2020/12/07 09:08:31;;;;;;;23.85;11.95;;;;;;;-1.03;38.90;102548.47;5030374;28;20560;-69
2020/12/07 09:10:57;;;;;;;22.55;10.93;;;;;;;-0.99;38.39;102562.56;5029528;28;20160;-69
2020/12/07 09:13:24;;;;;;;23.77;11.23;;;;;;;-1.41;38.88;102493.72;5029856;28;20132;-70
2020/12/07 09:15:49;;;;;;;26.42;12.35;;;;;;;-1.30;39.36;102520.13;5030201;28;20113;-66
2020/12/07 09:18:15;;;;;;;26.48;12.05;;;;;;;-1.17;39.33;102542.19;5064451;28;20591;-64
2020/12/07 09:20:40;;;;;;;27.00;12.30;;;;;;;-1.14;39.34;102551.84;5029487;28;20037;-65
2020/12/07 09:23:06;;;;;;;29.48;12.27;;;;;;;-1.14;39.21;102552.75;5025474;28;20043;-64
2020/12/07 09:25:31;;;;;;;26.20;12.90;;;;;;;-1.12;39.32;102551.00;5028777;28;20059;-65
2020/12/07 09:27:57;;;;;;;23.63;11.63;;;;;;;-1.11;39.63;102537.00;5029500;28;20489;-64
2020/12/07 09:30:22;;;;;;;21.70;11.27;;;;;;;-1.09;39.17;102542.25;5029370;28;20073;-65
2020/12/07 09:32:48;;;;;;;28.02;12.80;;;;;;;-1.13;39.99;102541.34;5030189;28;20025;-61
2020/12/07 09:35:14;;;;;;;27.20;13.25;;;;;;;-1.69;40.30;102453.94;5031516;28;20076;-64
2020/12/07 09:37:40;;;;;;;30.05;13.07;;;;;;;-1.13;39.91;102548.34;5029782;28;20477;-62
2020/12/07 09:40:08;;;;;;;29.80;12.85;;;;;;;-1.20;40.14;102552.69;5030147;28;20082;-66
2020/12/07 09:42:33;;;;;;;32.25;13.05;;;;;;;-1.24;40.22;102543.84;5029590;28;20106;-73
2020/12/07 09:44:59;;;;;;;30.10;12.95;;;;;;;-1.27;40.16;102545.56;5029678;28;20461;-69
2020/12/07 09:47:26;;;;;;;27.15;13.23;;;;;;;-1.37;40.03;102540.19;5011807;28;20148;-68
2020/12/07 09:49:52;;;;;;;32.88;14.70;;;;;;;-1.85;40.36;102451.97;5029876;28;20033;-68
2020/12/07 09:52:17;;;;;;;33.90;14.35;;;;;;;-1.31;40.73;102553.41;5029904;28;20075;-57
2020/12/07 09:54:43;;;;;;;32.17;14.05;;;;;;;-1.26;40.04;102552.56;5029963;28;20104;-63
2020/12/07 09:57:08;;;;;;;32.47;14.40;;;;;;;-1.27;40.83;102550.81;5013928;28;20050;-64
2020/12/07 09:59:35;;;;;;;41.20;18.15;;;;;;;-1.31;40.89;102560.44;5029887;28;20037;-71
2020/12/07 10:02:02;;;;;;;38.92;16.00;;;;;;;-1.38;40.75;102553.28;5029580;28;20061;-67
2020/12/07 10:04:28;;;;;;;25.67;13.82;;;;;;;-1.30;41.08;102551.66;5028327;28;20152;-68
2020/12/07 10:06:54;;;;;;;38.10;13.80;;;;;;;-1.30;40.96;102557.78;5029226;28;20041;-63
2020/12/07 10:09:21;;;;;;;29.75;15.48;;;;;;;-1.31;40.52;102550.78;5029432;28;20041;-65
2020/12/07 10:11:47;;;;;;;34.25;14.80;;;;;;;-1.44;40.69;102519.97;5029825;28;20033;-68
2020/12/07 10:14:12;;;;;;;32.95;15.63;;;;;;;-1.13;40.39;102558.88;5031399;28;20033;-66
2020/12/07 10:16:40;;;;;;;37.88;15.98;;;;;;;-1.18;40.15;102558.84;5032563;28;20096;-68
2020/12/07 10:19:06;;;;;;;31.52;14.35;;;;;;;-1.23;40.76;102542.09;5028711;28;20090;-69
2020/12/07 10:21:33;;;;;;;32.70;13.88;;;;;;;-1.70;40.42;102467.91;5028786;28;20045;-67
2020/12/07 10:23:59;;;;;;;32.10;14.38;;;;;;;-1.19;40.37;102542.16;5030208;28;20025;-68
2020/12/07 10:26:24;;;;;;;29.08;14.32;;;;;;;-1.27;40.23;102521.91;5033766;28;20120;-72
2020/12/07 10:28:51;;;;;;;34.35;14.73;;;;;;;-1.13;40.38;102553.59;5036077;28;20060;-66
2020/12/07 10:31:21;;;;;;;37.38;14.93;;;;;;;-1.07;40.52;102557.19;5037150;28;20092;-65
2020/12/07 10:33:48;;;;;;;33.90;14.52;;;;;;;-1.06;40.57;102551.06;5032951;28;20038;-62
2020/12/07 10:36:13;;;;;;;35.30;14.88;;;;;;;-1.08;40.10;102523.88;5033485;28;20029;-64
2020/12/07 10:38:39;;;;;;;38.13;14.68;;;;;;;-1.03;39.78;102511.66;5032603;28;20033;-74
2020/12/07 10:41:04;;;;;;;34.65;14.57;;;;;;;-0.82;39.83;102535.56;5032910;28;20042;-64
2020/12/07 10:43:30;;;;;;;36.17;14.57;;;;;;;-0.71;39.38;102525.16;5032858;28;20034;-66
2020/12/07 10:45:56;;;;;;;35.50;14.27;;;;;;;-0.76;39.39;102522.47;5033253;28;20481;-67
2020/12/07 10:48:22;;;;;;;31.73;14.60;;;;;;;-0.70;39.44;102526.91;5039725;28;20464;-67
2020/12/07 10:50:48;;;;;;;33.95;14.60;;;;;;;-0.78;39.57;102504.03;5032862;28;20201;-71
2020/12/07 10:53:13;;;;;;;30.42;14.68;;;;;;;-0.58;38.93;102521.75;5032614;28;20030;-65
2020/12/07 10:55:40;;;;;;;31.95;13.40;;;;;;;-0.49;38.88;102524.47;5032458;28;20053;-67
2020/12/07 10:58:06;;;;;;;35.33;14.48;;;;;;;-0.47;39.00;102517.50;5032716;28;20068;-71
2020/12/07 11:00:32;;;;;;;32.92;15.57;;;;;;;-0.35;38.84;102510.56;5032609;28;20037;-65
2020/12/07 11:02:57;;;;;;;29.83;14.45;;;;;;;-0.33;38.84;102495.66;5032401;28;20132;-69
2020/12/07 11:05:23;;;;;;;43.75;15.23;;;;;;;-0.22;38.97;102528.22;5032695;28;20048;-66
2020/12/07 11:07:51;;;;;;;32.25;14.73;;;;;;;-0.21;38.72;102526.47;5032612;28;20042;-57
2020/12/07 11:10:16;;;;;;;29.38;13.73;;;;;;;-0.28;38.53;102520.25;5032726;28;20029;-66
2020/12/07 11:12:45;;;;;;;28.83;14.65;;;;;;;-0.32;39.01;102514.13;5032434;28;20051;-64
2020/12/07 11:15:10;;;;;;;31.52;14.82;;;;;;;-0.33;39.20;102516.72;5031858;28;20174;-65
2020/12/07 11:17:36;;;;;;;25.80;13.32;;;;;;;-0.39;39.36;102516.66;5031228;28;20029;-65
2020/12/07 11:20:02;;;;;;;30.45;13.43;;;;;;;-0.39;38.61;102509.63;5036613;28;20087;-72
2020/12/07 11:22:28;;;;;;;33.97;13.85;;;;;;;-0.40;39.38;102520.19;5031740;28;20516;-67
2020/12/07 11:24:53;;;;;;;32.20;14.15;;;;;;;-0.45;39.19;102521.03;5058280;28;20120;-70
2020/12/07 11:27:19;;;;;;;27.77;13.20;;;;;;;-0.48;39.24;102531.53;5031326;28;20044;-67
2020/12/07 11:29:44;;;;;;;31.10;13.93;;;;;;;-0.54;39.31;102518.28;5031170;28;20043;-68
2020/12/07 11:32:10;;;;;;;30.73;14.05;;;;;;;-1.09;39.87;102437.97;5031506;28;20511;-66